sensor_id;sensor_type;location;lat;lon;timestamp;P1;durP1;ratioP1;P2;durP2;ratioP2
20986;SDS011;10652;50.306;8.570;2024-02-15T00:03:31;3.92;;;2.10;;
20986;SDS011;10652;50.306;8.570;2024-02-15T00:07:33;4.03;;;1.80;;
20986;SDS011;10652;50.306;8.570;2024-02-15T00:11:37;4.90;;;2.10;;
20986;SDS011;10652;50.306;8.570;2024-02-15T00:15:41;4.57;;;1.80;;
20986;SDS011;10652;50.306;8.570;2024-02-15T00:19:43;3.03;;;2.20;;
20986;SDS011;10652;50.306;8.570;2024-02-15T00:23:45;4.85;;;1.77;;
20986;SDS011;10652;50.306;8.570;2024-02-15T00:27:48;4.80;;;1.73;;
20986;SDS011;10652;50.306;8.570;2024-02-15T00:31:50;3.75;;;3.03;;
20986;SDS011;10652;50.306;8.570;2024-02-15T00:35:52;4.18;;;3.40;;
20986;SDS011;10652;50.306;8.570;2024-02-15T00:39:55;7.95;;;4.20;;
20986;SDS011;10652;50.306;8.570;2024-02-15T00:43:57;5.53;;;4.97;;
20986;SDS011;10652;50.306;8.570;2024-02-15T00:48:00;6.00;;;5.20;;
20986;SDS011;10652;50.306;8.570;2024-02-15T00:52:02;6.25;;;5.63;;
20986;SDS011;10652;50.306;8.570;2024-02-15T00:56:05;7.40;;;6.03;;
20986;SDS011;10652;50.306;8.570;2024-02-15T01:00:07;9.90;;;6.85;;
20986;SDS011;10652;50.306;8.570;2024-02-15T01:04:12;9.48;;;7.43;;
20986;SDS011;10652;50.306;8.570;2024-02-15T01:08:14;10.68;;;8.63;;
20986;SDS011;10652;50.306;8.570;2024-02-15T01:12:16;23.30;;;9.23;;
20986;SDS011;10652;50.306;8.570;2024-02-15T01:16:18;13.73;;;9.98;;
20986;SDS011;10652;50.306;8.570;2024-02-15T01:20:20;9.70;;;8.70;;
20986;SDS011;10652;50.306;8.570;2024-02-15T01:24:23;10.05;;;8.45;;
20986;SDS011;10652;50.306;8.570;2024-02-15T01:28:27;11.93;;;8.65;;
20986;SDS011;10652;50.306;8.570;2024-02-15T01:32:29;35.78;;;9.48;;
20986;SDS011;10652;50.306;8.570;2024-02-15T01:36:32;26.55;;;9.02;;
20986;SDS011;10652;50.306;8.570;2024-02-15T01:40:35;34.67;;;9.65;;
20986;SDS011;10652;50.306;8.570;2024-02-15T01:44:37;50.58;;;9.95;;
20986;SDS011;10652;50.306;8.570;2024-02-15T01:48:41;44.55;;;10.35;;
20986;SDS011;10652;50.306;8.570;2024-02-15T01:52:44;72.07;;;10.55;;
20986;SDS011;10652;50.306;8.570;2024-02-15T01:56:49;11.80;;;9.40;;
20986;SDS011;10652;50.306;8.570;2024-02-15T02:00:52;9.48;;;8.55;;
20986;SDS011;10652;50.306;8.570;2024-02-15T02:04:55;9.60;;;7.82;;
20986;SDS011;10652;50.306;8.570;2024-02-15T02:08:57;8.90;;;8.00;;
20986;SDS011;10652;50.306;8.570;2024-02-15T02:13:00;9.43;;;8.43;;
20986;SDS011;10652;50.306;8.570;2024-02-15T02:17:12;11.50;;;8.68;;
20986;SDS011;10652;50.306;8.570;2024-02-15T02:21:15;10.13;;;8.63;;
20986;SDS011;10652;50.306;8.570;2024-02-15T02:25:17;9.48;;;8.50;;
20986;SDS011;10652;50.306;8.570;2024-02-15T02:29:20;9.73;;;8.18;;
20986;SDS011;10652;50.306;8.570;2024-02-15T02:33:22;11.55;;;8.15;;
20986;SDS011;10652;50.306;8.570;2024-02-15T02:37:26;9.43;;;8.43;;
20986;SDS011;10652;50.306;8.570;2024-02-15T02:41:30;9.65;;;8.43;;
20986;SDS011;10652;50.306;8.570;2024-02-15T02:45:32;9.80;;;8.50;;
20986;SDS011;10652;50.306;8.570;2024-02-15T02:49:35;9.68;;;8.40;;
20986;SDS011;10652;50.306;8.570;2024-02-15T02:53:37;11.18;;;8.13;;
20986;SDS011;10652;50.306;8.570;2024-02-15T02:57:40;11.13;;;8.63;;
20986;SDS011;10652;50.306;8.570;2024-02-15T03:01:44;8.77;;;7.90;;
20986;SDS011;10652;50.306;8.570;2024-02-15T03:05:46;8.52;;;7.13;;
20986;SDS011;10652;50.306;8.570;2024-02-15T03:09:48;8.07;;;7.25;;
20986;SDS011;10652;50.306;8.570;2024-02-15T03:13:50;8.70;;;7.57;;
20986;SDS011;10652;50.306;8.570;2024-02-15T03:17:53;8.30;;;7.00;;
20986;SDS011;10652;50.306;8.570;2024-02-15T03:21:56;9.93;;;6.78;;
20986;SDS011;10652;50.306;8.570;2024-02-15T03:25:58;7.95;;;6.38;;
20986;SDS011;10652;50.306;8.570;2024-02-15T03:30:01;6.93;;;6.15;;
20986;SDS011;10652;50.306;8.570;2024-02-15T03:34:04;9.38;;;7.05;;
20986;SDS011;10652;50.306;8.570;2024-02-15T03:38:07;7.43;;;6.57;;
20986;SDS011;10652;50.306;8.570;2024-02-15T03:42:09;8.48;;;7.53;;
20986;SDS011;10652;50.306;8.570;2024-02-15T03:46:12;7.78;;;6.97;;
20986;SDS011;10652;50.306;8.570;2024-02-15T03:50:14;8.88;;;7.60;;
20986;SDS011;10652;50.306;8.570;2024-02-15T03:54:17;9.65;;;8.02;;
20986;SDS011;10652;50.306;8.570;2024-02-15T03:58:19;9.48;;;8.35;;
20986;SDS011;10652;50.306;8.570;2024-02-15T04:02:21;8.20;;;7.28;;
20986;SDS011;10652;50.306;8.570;2024-02-15T04:06:25;8.02;;;7.22;;
20986;SDS011;10652;50.306;8.570;2024-02-15T04:10:30;8.57;;;7.38;;
20986;SDS011;10652;50.306;8.570;2024-02-15T04:14:33;8.60;;;7.15;;
20986;SDS011;10652;50.306;8.570;2024-02-15T04:18:36;11.00;;;7.63;;
20986;SDS011;10652;50.306;8.570;2024-02-15T04:22:39;7.95;;;7.13;;
20986;SDS011;10652;50.306;8.570;2024-02-15T04:26:45;8.30;;;6.97;;
20986;SDS011;10652;50.306;8.570;2024-02-15T04:30:49;8.55;;;7.22;;
20986;SDS011;10652;50.306;8.570;2024-02-15T04:34:51;8.00;;;6.30;;
20986;SDS011;10652;50.306;8.570;2024-02-15T04:38:54;8.25;;;6.32;;
20986;SDS011;10652;50.306;8.570;2024-02-15T04:42:56;6.68;;;5.60;;
20986;SDS011;10652;50.306;8.570;2024-02-15T04:47:00;6.88;;;5.15;;
20986;SDS011;10652;50.306;8.570;2024-02-15T04:51:02;5.55;;;4.35;;
20986;SDS011;10652;50.306;8.570;2024-02-15T04:55:05;6.22;;;4.65;;
20986;SDS011;10652;50.306;8.570;2024-02-15T04:59:11;7.72;;;4.72;;
20986;SDS011;10652;50.306;8.570;2024-02-15T05:03:16;8.13;;;5.20;;
20986;SDS011;10652;50.306;8.570;2024-02-15T05:07:19;6.82;;;4.50;;
20986;SDS011;10652;50.306;8.570;2024-02-15T05:11:21;10.23;;;7.00;;
20986;SDS011;10652;50.306;8.570;2024-02-15T05:15:24;6.60;;;5.20;;
20986;SDS011;10652;50.306;8.570;2024-02-15T05:19:27;6.85;;;4.30;;
20986;SDS011;10652;50.306;8.570;2024-02-15T05:23:29;6.18;;;4.30;;
20986;SDS011;10652;50.306;8.570;2024-02-15T05:27:32;7.65;;;5.30;;
20986;SDS011;10652;50.306;8.570;2024-02-15T05:31:35;9.70;;;5.80;;
20986;SDS011;10652;50.306;8.570;2024-02-15T05:35:40;8.07;;;4.78;;
20986;SDS011;10652;50.306;8.570;2024-02-15T05:39:43;9.13;;;4.80;;
20986;SDS011;10652;50.306;8.570;2024-02-15T05:43:47;6.07;;;4.32;;
20986;SDS011;10652;50.306;8.570;2024-02-15T05:47:55;9.27;;;5.68;;
20986;SDS011;10652;50.306;8.570;2024-02-15T05:51:57;7.47;;;6.32;;
20986;SDS011;10652;50.306;8.570;2024-02-15T05:55:59;8.55;;;6.82;;
20986;SDS011;10652;50.306;8.570;2024-02-15T06:00:01;8.23;;;7.32;;
20986;SDS011;10652;50.306;8.570;2024-02-15T06:04:21;8.95;;;7.28;;
20986;SDS011;10652;50.306;8.570;2024-02-15T06:08:25;9.68;;;7.95;;
20986;SDS011;10652;50.306;8.570;2024-02-15T06:12:27;9.90;;;7.53;;
20986;SDS011;10652;50.306;8.570;2024-02-15T06:16:29;9.80;;;7.90;;
20986;SDS011;10652;50.306;8.570;2024-02-15T06:20:33;11.88;;;8.80;;
20986;SDS011;10652;50.306;8.570;2024-02-15T06:24:35;9.48;;;7.45;;
20986;SDS011;10652;50.306;8.570;2024-02-15T06:28:37;11.27;;;7.60;;
20986;SDS011;10652;50.306;8.570;2024-02-15T06:32:58;9.70;;;7.35;;
20986;SDS011;10652;50.306;8.570;2024-02-15T06:37:34;8.75;;;6.68;;
20986;SDS011;10652;50.306;8.570;2024-02-15T06:41:55;8.88;;;6.47;;
20986;SDS011;10652;50.306;8.570;2024-02-15T06:45:58;6.93;;;5.80;;
20986;SDS011;10652;50.306;8.570;2024-02-15T06:50:00;8.77;;;6.38;;
20986;SDS011;10652;50.306;8.570;2024-02-15T06:54:02;8.57;;;5.32;;
20986;SDS011;10652;50.306;8.570;2024-02-15T06:58:05;6.22;;;5.40;;
20986;SDS011;10652;50.306;8.570;2024-02-15T07:02:07;7.38;;;5.45;;
20986;SDS011;10652;50.306;8.570;2024-02-15T07:06:10;7.35;;;4.80;;
20986;SDS011;10652;50.306;8.570;2024-02-15T07:10:15;6.53;;;4.75;;
20986;SDS011;10652;50.306;8.570;2024-02-15T07:14:18;6.78;;;4.78;;
20986;SDS011;10652;50.306;8.570;2024-02-15T07:18:21;7.13;;;4.50;;
20986;SDS011;10652;50.306;8.570;2024-02-15T07:22:30;7.38;;;4.95;;
20986;SDS011;10652;50.306;8.570;2024-02-15T07:26:33;7.72;;;4.85;;
20986;SDS011;10652;50.306;8.570;2024-02-15T07:30:37;8.52;;;5.40;;
20986;SDS011;10652;50.306;8.570;2024-02-15T07:34:39;7.70;;;5.20;;
20986;SDS011;10652;50.306;8.570;2024-02-15T07:38:43;6.93;;;4.47;;
20986;SDS011;10652;50.306;8.570;2024-02-15T07:42:48;6.30;;;5.00;;
20986;SDS011;10652;50.306;8.570;2024-02-15T07:46:50;7.50;;;5.13;;
20986;SDS011;10652;50.306;8.570;2024-02-15T07:50:52;5.25;;;4.63;;
20986;SDS011;10652;50.306;8.570;2024-02-15T07:54:55;4.38;;;3.90;;
20986;SDS011;10652;50.306;8.570;2024-02-15T07:58:58;5.50;;;3.55;;
20986;SDS011;10652;50.306;8.570;2024-02-15T08:03:00;4.68;;;3.42;;
20986;SDS011;10652;50.306;8.570;2024-02-15T08:07:02;23.60;;;16.17;;
20986;SDS011;10652;50.306;8.570;2024-02-15T08:11:05;42.17;;;25.52;;
20986;SDS011;10652;50.306;8.570;2024-02-15T08:15:07;18.35;;;12.30;;
20986;SDS011;10652;50.306;8.570;2024-02-15T08:19:16;4.68;;;3.40;;
20986;SDS011;10652;50.306;8.570;2024-02-15T08:23:19;4.93;;;3.30;;
20986;SDS011;10652;50.306;8.570;2024-02-15T08:27:21;7.15;;;3.42;;
20986;SDS011;10652;50.306;8.570;2024-02-15T08:31:23;4.03;;;3.55;;
20986;SDS011;10652;50.306;8.570;2024-02-15T08:35:25;5.35;;;3.28;;
20986;SDS011;10652;50.306;8.570;2024-02-15T08:39:28;9.57;;;5.20;;
20986;SDS011;10652;50.306;8.570;2024-02-15T08:43:30;7.70;;;5.53;;
20986;SDS011;10652;50.306;8.570;2024-02-15T08:47:35;9.00;;;5.35;;
20986;SDS011;10652;50.306;8.570;2024-02-15T08:51:39;6.40;;;3.80;;
20986;SDS011;10652;50.306;8.570;2024-02-15T08:55:41;6.63;;;3.42;;
20986;SDS011;10652;50.306;8.570;2024-02-15T08:59:44;6.60;;;3.75;;
20986;SDS011;10652;50.306;8.570;2024-02-15T09:03:46;5.40;;;4.22;;
20986;SDS011;10652;50.306;8.570;2024-02-15T09:07:48;5.70;;;3.92;;
20986;SDS011;10652;50.306;8.570;2024-02-15T09:11:52;6.32;;;3.80;;
20986;SDS011;10652;50.306;8.570;2024-02-15T09:15:55;5.18;;;3.70;;
20986;SDS011;10652;50.306;8.570;2024-02-15T09:19:58;5.55;;;3.60;;
20986;SDS011;10652;50.306;8.570;2024-02-15T09:24:00;6.55;;;3.42;;
20986;SDS011;10652;50.306;8.570;2024-02-15T09:28:02;5.65;;;3.60;;
20986;SDS011;10652;50.306;8.570;2024-02-15T09:32:05;4.95;;;3.00;;
20986;SDS011;10652;50.306;8.570;2024-02-15T09:36:07;6.57;;;3.10;;
20986;SDS011;10652;50.306;8.570;2024-02-15T09:40:10;5.63;;;2.92;;
20986;SDS011;10652;50.306;8.570;2024-02-15T09:44:14;6.32;;;3.30;;
20986;SDS011;10652;50.306;8.570;2024-02-15T09:48:17;5.80;;;4.20;;
20986;SDS011;10652;50.306;8.570;2024-02-15T09:52:20;7.30;;;4.47;;
20986;SDS011;10652;50.306;8.570;2024-02-15T09:56:22;5.57;;;4.38;;
20986;SDS011;10652;50.306;8.570;2024-02-15T10:00:26;6.10;;;3.80;;
20986;SDS011;10652;50.306;8.570;2024-02-15T10:04:28;12.02;;;6.18;;
20986;SDS011;10652;50.306;8.570;2024-02-15T10:08:31;10.00;;;5.85;;
20986;SDS011;10652;50.306;8.570;2024-02-15T10:12:36;7.82;;;5.20;;
20986;SDS011;10652;50.306;8.570;2024-02-15T10:16:40;10.73;;;7.05;;
20986;SDS011;10652;50.306;8.570;2024-02-15T10:20:42;6.80;;;5.30;;
20986;SDS011;10652;50.306;8.570;2024-02-15T10:24:48;5.30;;;4.20;;
20986;SDS011;10652;50.306;8.570;2024-02-15T10:29:04;4.97;;;3.80;;
20986;SDS011;10652;50.306;8.570;2024-02-15T10:33:27;3.88;;;3.30;;
20986;SDS011;10652;50.306;8.570;2024-02-15T10:37:34;5.28;;;3.50;;
20986;SDS011;10652;50.306;8.570;2024-02-15T10:41:36;5.07;;;2.33;;
20986;SDS011;10652;50.306;8.570;2024-02-15T10:45:42;6.55;;;2.95;;
20986;SDS011;10652;50.306;8.570;2024-02-15T10:49:44;4.50;;;2.45;;
20986;SDS011;10652;50.306;8.570;2024-02-15T10:53:52;5.05;;;2.55;;
20986;SDS011;10652;50.306;8.570;2024-02-15T10:58:05;2.45;;;1.83;;
20986;SDS011;10652;50.306;8.570;2024-02-15T11:02:27;3.33;;;1.98;;
20986;SDS011;10652;50.306;8.570;2024-02-15T11:06:35;3.03;;;2.00;;
20986;SDS011;10652;50.306;8.570;2024-02-15T11:10:42;2.75;;;1.80;;
20986;SDS011;10652;50.306;8.570;2024-02-15T11:14:45;3.60;;;1.70;;
20986;SDS011;10652;50.306;8.570;2024-02-15T11:18:48;5.63;;;2.25;;
20986;SDS011;10652;50.306;8.570;2024-02-15T11:22:55;4.25;;;2.25;;
20986;SDS011;10652;50.306;8.570;2024-02-15T11:26:59;4.88;;;2.22;;
20986;SDS011;10652;50.306;8.570;2024-02-15T11:35:12;4.20;;;2.00;;
20986;SDS011;10652;50.306;8.570;2024-02-15T11:47:51;4.88;;;2.30;;
20986;SDS011;10652;50.306;8.570;2024-02-15T11:51:56;3.53;;;1.95;;
20986;SDS011;10652;50.306;8.570;2024-02-15T11:56:02;3.60;;;2.08;;
20986;SDS011;10652;50.306;8.570;2024-02-15T12:04:34;5.30;;;3.22;;
20986;SDS011;10652;50.306;8.570;2024-02-15T12:08:55;4.18;;;1.85;;
20986;SDS011;10652;50.306;8.570;2024-02-15T12:13:19;4.03;;;2.10;;
20986;SDS011;10652;50.306;8.570;2024-02-15T12:17:40;4.97;;;2.00;;
20986;SDS011;10652;50.306;8.570;2024-02-15T12:22:01;4.53;;;2.53;;
20986;SDS011;10652;50.306;8.570;2024-02-15T12:26:06;3.30;;;1.85;;
20986;SDS011;10652;50.306;8.570;2024-02-15T12:30:16;4.32;;;2.10;;
20986;SDS011;10652;50.306;8.570;2024-02-15T12:34:23;4.22;;;1.58;;
20986;SDS011;10652;50.306;8.570;2024-02-15T12:38:25;2.33;;;1.50;;
20986;SDS011;10652;50.306;8.570;2024-02-15T12:42:27;6.40;;;1.60;;
20986;SDS011;10652;50.306;8.570;2024-02-15T12:46:30;3.13;;;1.40;;
20986;SDS011;10652;50.306;8.570;2024-02-15T12:50:33;7.18;;;1.60;;
20986;SDS011;10652;50.306;8.570;2024-02-15T12:54:36;6.55;;;1.30;;
20986;SDS011;10652;50.306;8.570;2024-02-15T12:58:41;1.95;;;0.98;;
20986;SDS011;10652;50.306;8.570;2024-02-15T13:02:45;6.07;;;1.80;;
20986;SDS011;10652;50.306;8.570;2024-02-15T13:06:51;3.50;;;1.30;;
20986;SDS011;10652;50.306;8.570;2024-02-15T13:10:53;2.65;;;1.00;;
20986;SDS011;10652;50.306;8.570;2024-02-15T13:14:55;4.88;;;0.98;;
20986;SDS011;10652;50.306;8.570;2024-02-15T13:18:58;4.20;;;1.02;;
20986;SDS011;10652;50.306;8.570;2024-02-15T13:23:02;3.38;;;0.90;;
20986;SDS011;10652;50.306;8.570;2024-02-15T13:27:16;3.85;;;1.20;;
20986;SDS011;10652;50.306;8.570;2024-02-15T13:31:19;2.20;;;0.93;;
20986;SDS011;10652;50.306;8.570;2024-02-15T13:35:23;3.05;;;0.90;;
20986;SDS011;10652;50.306;8.570;2024-02-15T13:39:28;4.10;;;1.00;;
20986;SDS011;10652;50.306;8.570;2024-02-15T13:43:35;3.75;;;0.85;;
20986;SDS011;10652;50.306;8.570;2024-02-15T13:47:37;5.75;;;1.10;;
20986;SDS011;10652;50.306;8.570;2024-02-15T13:51:39;2.75;;;0.90;;
20986;SDS011;10652;50.306;8.570;2024-02-15T13:55:41;3.60;;;0.93;;
20986;SDS011;10652;50.306;8.570;2024-02-15T13:59:43;2.83;;;1.00;;
20986;SDS011;10652;50.306;8.570;2024-02-15T14:03:46;3.58;;;1.00;;
20986;SDS011;10652;50.306;8.570;2024-02-15T14:07:49;5.68;;;0.95;;
20986;SDS011;10652;50.306;8.570;2024-02-15T14:11:52;4.13;;;1.10;;
20986;SDS011;10652;50.306;8.570;2024-02-15T14:15:54;2.53;;;0.95;;
20986;SDS011;10652;50.306;8.570;2024-02-15T14:19:56;2.20;;;1.40;;
20986;SDS011;10652;50.306;8.570;2024-02-15T14:23:59;3.60;;;1.50;;
20986;SDS011;10652;50.306;8.570;2024-02-15T14:28:01;1.95;;;1.05;;
20986;SDS011;10652;50.306;8.570;2024-02-15T14:32:05;1.88;;;0.73;;
20986;SDS011;10652;50.306;8.570;2024-02-15T14:36:26;2.55;;;1.02;;
20986;SDS011;10652;50.306;8.570;2024-02-15T14:40:28;1.77;;;0.90;;
20986;SDS011;10652;50.306;8.570;2024-02-15T14:48:48;3.17;;;0.82;;
20986;SDS011;10652;50.306;8.570;2024-02-15T14:52:51;3.85;;;0.90;;
20986;SDS011;10652;50.306;8.570;2024-02-15T14:56:54;5.75;;;1.30;;
20986;SDS011;10652;50.306;8.570;2024-02-15T15:00:56;4.60;;;1.00;;
20986;SDS011;10652;50.306;8.570;2024-02-15T15:05:01;3.47;;;1.20;;
20986;SDS011;10652;50.306;8.570;2024-02-15T15:09:22;3.05;;;1.40;;
20986;SDS011;10652;50.306;8.570;2024-02-15T15:13:56;9.30;;;5.13;;
20986;SDS011;10652;50.306;8.570;2024-02-15T15:17:59;5.63;;;3.08;;
20986;SDS011;10652;50.306;8.570;2024-02-15T15:22:02;7.32;;;2.35;;
20986;SDS011;10652;50.306;8.570;2024-02-15T15:26:06;4.90;;;2.72;;
20986;SDS011;10652;50.306;8.570;2024-02-15T15:30:09;4.05;;;1.80;;
20986;SDS011;10652;50.306;8.570;2024-02-15T15:34:12;7.60;;;1.90;;
20986;SDS011;10652;50.306;8.570;2024-02-15T15:38:14;5.15;;;2.67;;
20986;SDS011;10652;50.306;8.570;2024-02-15T15:42:17;2.88;;;1.95;;
20986;SDS011;10652;50.306;8.570;2024-02-15T15:46:20;3.17;;;1.45;;
20986;SDS011;10652;50.306;8.570;2024-02-15T15:50:22;3.30;;;1.35;;
20986;SDS011;10652;50.306;8.570;2024-02-15T15:54:24;4.07;;;1.10;;
20986;SDS011;10652;50.306;8.570;2024-02-15T15:58:27;3.35;;;0.80;;
20986;SDS011;10652;50.306;8.570;2024-02-15T16:02:29;4.60;;;1.20;;
20986;SDS011;10652;50.306;8.570;2024-02-15T16:06:32;4.22;;;1.20;;
20986;SDS011;10652;50.306;8.570;2024-02-15T16:10:36;4.55;;;1.00;;
20986;SDS011;10652;50.306;8.570;2024-02-15T16:14:38;5.10;;;1.17;;
20986;SDS011;10652;50.306;8.570;2024-02-15T16:18:41;5.25;;;1.35;;
20986;SDS011;10652;50.306;8.570;2024-02-15T16:22:46;2.50;;;1.30;;
20986;SDS011;10652;50.306;8.570;2024-02-15T16:26:50;4.13;;;1.63;;
20986;SDS011;10652;50.306;8.570;2024-02-15T16:30:55;4.30;;;2.30;;
20986;SDS011;10652;50.306;8.570;2024-02-15T16:34:58;6.95;;;2.72;;
20986;SDS011;10652;50.306;8.570;2024-02-15T16:39:06;2.53;;;1.25;;
20986;SDS011;10652;50.306;8.570;2024-02-15T16:43:09;3.72;;;1.20;;
20986;SDS011;10652;50.306;8.570;2024-02-15T16:47:11;8.02;;;1.52;;
20986;SDS011;10652;50.306;8.570;2024-02-15T16:51:13;3.13;;;1.70;;
20986;SDS011;10652;50.306;8.570;2024-02-15T16:55:16;4.03;;;2.17;;
20986;SDS011;10652;50.306;8.570;2024-02-15T16:59:28;5.43;;;4.05;;
20986;SDS011;10652;50.306;8.570;2024-02-15T17:03:34;4.78;;;2.20;;
20986;SDS011;10652;50.306;8.570;2024-02-15T17:07:36;5.15;;;2.50;;
20986;SDS011;10652;50.306;8.570;2024-02-15T17:11:38;4.75;;;2.53;;
20986;SDS011;10652;50.306;8.570;2024-02-15T17:15:43;4.40;;;1.70;;
20986;SDS011;10652;50.306;8.570;2024-02-15T17:19:45;4.15;;;1.60;;
20986;SDS011;10652;50.306;8.570;2024-02-15T17:23:48;5.05;;;2.05;;
20986;SDS011;10652;50.306;8.570;2024-02-15T17:27:50;7.45;;;2.58;;
20986;SDS011;10652;50.306;8.570;2024-02-15T17:31:52;4.72;;;2.35;;
20986;SDS011;10652;50.306;8.570;2024-02-15T17:35:54;3.50;;;1.30;;
20986;SDS011;10652;50.306;8.570;2024-02-15T17:39:58;4.28;;;1.20;;
20986;SDS011;10652;50.306;8.570;2024-02-15T17:44:00;5.28;;;1.50;;
20986;SDS011;10652;50.306;8.570;2024-02-15T17:48:03;3.63;;;1.15;;
20986;SDS011;10652;50.306;8.570;2024-02-15T17:52:06;2.83;;;1.10;;
20986;SDS011;10652;50.306;8.570;2024-02-15T17:56:10;3.28;;;1.40;;
20986;SDS011;10652;50.306;8.570;2024-02-15T18:00:16;2.50;;;1.10;;
20986;SDS011;10652;50.306;8.570;2024-02-15T18:04:21;2.65;;;1.08;;
20986;SDS011;10652;50.306;8.570;2024-02-15T18:08:23;2.13;;;1.02;;
20986;SDS011;10652;50.306;8.570;2024-02-15T18:12:27;13.68;;;7.05;;
20986;SDS011;10652;50.306;8.570;2024-02-15T18:16:29;11.63;;;5.78;;
20986;SDS011;10652;50.306;8.570;2024-02-15T18:20:31;11.02;;;6.53;;
20986;SDS011;10652;50.306;8.570;2024-02-15T18:24:33;8.95;;;5.95;;
20986;SDS011;10652;50.306;8.570;2024-02-15T18:28:36;4.75;;;1.92;;
20986;SDS011;10652;50.306;8.570;2024-02-15T18:32:41;15.48;;;6.88;;
20986;SDS011;10652;50.306;8.570;2024-02-15T18:36:43;4.75;;;1.83;;
20986;SDS011;10652;50.306;8.570;2024-02-15T18:40:46;3.83;;;1.50;;
20986;SDS011;10652;50.306;8.570;2024-02-15T18:44:49;4.53;;;2.40;;
20986;SDS011;10652;50.306;8.570;2024-02-15T18:48:51;39.13;;;28.77;;
20986;SDS011;10652;50.306;8.570;2024-02-15T18:52:53;4.78;;;3.35;;
20986;SDS011;10652;50.306;8.570;2024-02-15T18:56:59;5.28;;;2.60;;
20986;SDS011;10652;50.306;8.570;2024-02-15T19:01:01;4.70;;;1.60;;
20986;SDS011;10652;50.306;8.570;2024-02-15T19:05:03;7.63;;;4.78;;
20986;SDS011;10652;50.306;8.570;2024-02-15T19:09:13;11.13;;;5.97;;
20986;SDS011;10652;50.306;8.570;2024-02-15T19:13:15;4.43;;;1.98;;
20986;SDS011;10652;50.306;8.570;2024-02-15T19:17:17;5.00;;;1.77;;
20986;SDS011;10652;50.306;8.570;2024-02-15T19:21:20;5.13;;;2.50;;
20986;SDS011;10652;50.306;8.570;2024-02-15T19:25:24;4.18;;;2.20;;
20986;SDS011;10652;50.306;8.570;2024-02-15T19:29:27;5.45;;;1.90;;
20986;SDS011;10652;50.306;8.570;2024-02-15T19:33:30;5.95;;;2.92;;
20986;SDS011;10652;50.306;8.570;2024-02-15T19:37:49;5.40;;;1.88;;
20986;SDS011;10652;50.306;8.570;2024-02-15T19:41:51;3.75;;;1.85;;
20986;SDS011;10652;50.306;8.570;2024-02-15T19:45:53;4.80;;;1.65;;
20986;SDS011;10652;50.306;8.570;2024-02-15T19:49:57;4.18;;;1.67;;
20986;SDS011;10652;50.306;8.570;2024-02-15T19:53:59;3.85;;;1.50;;
20986;SDS011;10652;50.306;8.570;2024-02-15T19:58:01;6.55;;;2.47;;
20986;SDS011;10652;50.306;8.570;2024-02-15T20:02:03;5.80;;;1.95;;
20986;SDS011;10652;50.306;8.570;2024-02-15T20:06:05;3.00;;;1.48;;
20986;SDS011;10652;50.306;8.570;2024-02-15T20:10:08;7.20;;;3.03;;
20986;SDS011;10652;50.306;8.570;2024-02-15T20:14:11;5.43;;;2.78;;
20986;SDS011;10652;50.306;8.570;2024-02-15T20:18:15;8.05;;;3.17;;
20986;SDS011;10652;50.306;8.570;2024-02-15T20:22:17;6.05;;;2.50;;
20986;SDS011;10652;50.306;8.570;2024-02-15T20:26:20;4.28;;;1.77;;
20986;SDS011;10652;50.306;8.570;2024-02-15T20:30:22;4.75;;;2.30;;
20986;SDS011;10652;50.306;8.570;2024-02-15T20:34:25;4.28;;;2.20;;
20986;SDS011;10652;50.306;8.570;2024-02-15T20:38:28;4.80;;;2.10;;
20986;SDS011;10652;50.306;8.570;2024-02-15T20:42:31;2.88;;;1.92;;
20986;SDS011;10652;50.306;8.570;2024-02-15T20:46:34;5.43;;;2.00;;
20986;SDS011;10652;50.306;8.570;2024-02-15T20:50:36;4.10;;;1.73;;
20986;SDS011;10652;50.306;8.570;2024-02-15T20:54:38;7.03;;;2.67;;
20986;SDS011;10652;50.306;8.570;2024-02-15T20:58:40;3.22;;;1.73;;
20986;SDS011;10652;50.306;8.570;2024-02-15T21:02:42;4.75;;;1.77;;
20986;SDS011;10652;50.306;8.570;2024-02-15T21:06:46;3.47;;;1.70;;
20986;SDS011;10652;50.306;8.570;2024-02-15T21:10:49;6.72;;;2.13;;
20986;SDS011;10652;50.306;8.570;2024-02-15T21:14:51;4.90;;;2.92;;
20986;SDS011;10652;50.306;8.570;2024-02-15T21:18:54;3.97;;;2.13;;
20986;SDS011;10652;50.306;8.570;2024-02-15T21:22:56;6.82;;;3.40;;
20986;SDS011;10652;50.306;8.570;2024-02-15T21:27:06;7.10;;;3.50;;
20986;SDS011;10652;50.306;8.570;2024-02-15T21:31:09;46.80;;;25.98;;
20986;SDS011;10652;50.306;8.570;2024-02-15T21:35:16;11.38;;;7.10;;
20986;SDS011;10652;50.306;8.570;2024-02-15T21:39:20;11.88;;;6.10;;
20986;SDS011;10652;50.306;8.570;2024-02-15T21:43:27;6.70;;;4.13;;
20986;SDS011;10652;50.306;8.570;2024-02-15T21:47:29;5.32;;;3.40;;
20986;SDS011;10652;50.306;8.570;2024-02-15T21:51:31;6.80;;;3.92;;
20986;SDS011;10652;50.306;8.570;2024-02-15T21:55:34;11.77;;;4.82;;
20986;SDS011;10652;50.306;8.570;2024-02-15T21:59:38;6.30;;;3.50;;
20986;SDS011;10652;50.306;8.570;2024-02-15T22:03:41;5.85;;;3.17;;
20986;SDS011;10652;50.306;8.570;2024-02-15T22:07:44;7.28;;;4.30;;
20986;SDS011;10652;50.306;8.570;2024-02-15T22:11:46;5.50;;;3.08;;
20986;SDS011;10652;50.306;8.570;2024-02-15T22:15:48;7.40;;;5.45;;
20986;SDS011;10652;50.306;8.570;2024-02-15T22:19:51;8.68;;;6.70;;
20986;SDS011;10652;50.306;8.570;2024-02-15T22:23:53;7.53;;;5.20;;
20986;SDS011;10652;50.306;8.570;2024-02-15T22:27:55;4.18;;;2.85;;
20986;SDS011;10652;50.306;8.570;2024-02-15T22:31:57;5.97;;;2.33;;
20986;SDS011;10652;50.306;8.570;2024-02-15T22:35:59;3.72;;;1.70;;
20986;SDS011;10652;50.306;8.570;2024-02-15T22:40:01;3.33;;;1.60;;
20986;SDS011;10652;50.306;8.570;2024-02-15T22:44:05;4.55;;;2.10;;
20986;SDS011;10652;50.306;8.570;2024-02-15T22:48:07;4.18;;;1.83;;
20986;SDS011;10652;50.306;8.570;2024-02-15T22:52:10;2.58;;;1.50;;
20986;SDS011;10652;50.306;8.570;2024-02-15T22:56:12;4.70;;;2.03;;
20986;SDS011;10652;50.306;8.570;2024-02-15T23:00:15;3.97;;;2.17;;
20986;SDS011;10652;50.306;8.570;2024-02-15T23:04:17;5.47;;;1.85;;
20986;SDS011;10652;50.306;8.570;2024-02-15T23:08:20;3.50;;;1.98;;
20986;SDS011;10652;50.306;8.570;2024-02-15T23:12:22;2.88;;;1.80;;
20986;SDS011;10652;50.306;8.570;2024-02-15T23:16:26;6.85;;;2.40;;
20986;SDS011;10652;50.306;8.570;2024-02-15T23:20:29;4.80;;;1.73;;
20986;SDS011;10652;50.306;8.570;2024-02-15T23:24:31;3.30;;;2.00;;
20986;SDS011;10652;50.306;8.570;2024-02-15T23:28:33;4.68;;;2.00;;
20986;SDS011;10652;50.306;8.570;2024-02-15T23:32:35;3.10;;;1.70;;
20986;SDS011;10652;50.306;8.570;2024-02-15T23:36:38;5.20;;;1.73;;
20986;SDS011;10652;50.306;8.570;2024-02-15T23:40:59;2.33;;;1.90;;
20986;SDS011;10652;50.306;8.570;2024-02-15T23:45:02;2.88;;;1.80;;
20986;SDS011;10652;50.306;8.570;2024-02-15T23:49:06;2.55;;;1.70;;
20986;SDS011;10652;50.306;8.570;2024-02-15T23:53:08;4.05;;;2.00;;
20986;SDS011;10652;50.306;8.570;2024-02-15T23:57:11;3.92;;;1.70;;
